createdAt,value
2019-01-29T00:01:08.341Z,15.58
2019-01-29T00:04:07.158Z,14.18
2019-01-29T00:06:53.781Z,11.73
2019-01-29T00:09:35.890Z,9.90
2019-01-29T00:12:18.925Z,13.85
2019-01-29T00:15:01.517Z,11.95
2019-01-29T00:17:51.659Z,12.05
2019-01-29T00:20:30.895Z,11.45
2019-01-29T00:23:10.684Z,9.53
2019-01-29T00:25:47.844Z,15.98
2019-01-29T00:28:25.956Z,12.13
2019-01-29T00:31:01.910Z,10.45
2019-01-29T00:33:42.768Z,16.30
2019-01-29T00:36:20.075Z,16.67
2019-01-29T00:38:53.692Z,13.60
2019-01-29T00:41:54.231Z,10.88
2019-01-29T00:44:28.773Z,11.00
2019-01-29T00:47:15.946Z,8.33
2019-01-29T00:49:55.842Z,13.88
2019-01-29T00:52:42.052Z,11.88
2019-01-29T00:55:17.738Z,11.88
2019-01-29T00:57:55.620Z,11.63
2019-01-29T01:00:28.937Z,13.05
2019-01-29T01:03:07.294Z,12.37
2019-01-29T01:05:53.176Z,12.80
2019-01-29T01:08:31.857Z,12.95
2019-01-29T01:11:19.295Z,14.20
2019-01-29T01:13:58.185Z,13.58
2019-01-29T01:16:33.680Z,10.13
2019-01-29T01:19:10.496Z,14.45
2019-01-29T01:21:43.905Z,11.18
2019-01-29T01:24:18.467Z,13.70
2019-01-29T01:26:54.232Z,12.55
2019-01-29T01:29:27.867Z,17.30
2019-01-29T01:32:00.757Z,15.38
2019-01-29T01:34:34.415Z,12.30
2019-01-29T01:37:13.330Z,14.38
2019-01-29T01:39:47.033Z,9.33
2019-01-29T01:42:22.473Z,11.25
2019-01-29T01:44:56.092Z,14.07
2019-01-29T01:47:29.527Z,11.38
2019-01-29T01:50:03.518Z,14.25
2019-01-29T01:52:36.882Z,15.38
2019-01-29T01:55:12.202Z,14.38
2019-01-29T01:57:48.812Z,16.55
2019-01-29T02:00:23.170Z,15.50
2019-01-29T02:03:09.015Z,15.90
2019-01-29T02:05:44.490Z,18.37
2019-01-29T02:08:17.944Z,19.12
2019-01-29T02:10:56.641Z,13.50
2019-01-29T02:13:34.591Z,16.42
2019-01-29T02:16:12.989Z,20.65
2019-01-29T02:18:57.922Z,16.48
2019-01-29T02:21:39.690Z,21.37
2019-01-29T02:24:16.148Z,16.90
2019-01-29T02:26:55.677Z,21.73
2019-01-29T02:29:33.788Z,22.15
2019-01-29T02:32:12.030Z,14.83
2019-01-29T02:35:02.259Z,15.48
2019-01-29T02:37:42.823Z,15.13
2019-01-29T02:40:21.438Z,22.15
2019-01-29T02:43:22.787Z,18.42
2019-01-29T02:45:59.662Z,16.77
2019-01-29T02:48:32.961Z,15.45
2019-01-29T02:51:06.609Z,18.45
2019-01-29T02:54:21.829Z,14.65
2019-01-29T02:57:21.040Z,18.73
2019-01-29T03:00:02.442Z,20.02
2019-01-29T03:02:42.416Z,17.57
2019-01-29T03:05:25.117Z,17.25
2019-01-29T03:08:01.766Z,18.20
2019-01-29T03:10:59.327Z,20.20
2019-01-29T03:13:37.162Z,21.87
2019-01-29T03:16:15.425Z,17.65
2019-01-29T03:18:54.111Z,15.80
2019-01-29T03:21:38.870Z,20.37
2019-01-29T03:24:15.453Z,15.48
2019-01-29T03:26:52.009Z,13.32
2019-01-29T03:29:31.406Z,10.45
2019-01-29T03:32:09.498Z,18.42
2019-01-29T03:34:47.348Z,14.20
2019-01-29T03:37:36.268Z,14.83
2019-01-29T03:40:13.061Z,14.53
2019-01-29T03:42:49.678Z,19.50
2019-01-29T03:45:26.541Z,11.43
2019-01-29T03:48:05.263Z,16.73
2019-01-29T03:50:46.006Z,17.32
2019-01-29T03:53:21.577Z,13.60
2019-01-29T03:55:56.196Z,20.55
2019-01-29T03:58:37.188Z,19.17
2019-01-29T04:01:42.039Z,17.20
2019-01-29T04:04:21.184Z,14.43
2019-01-29T04:06:58.967Z,16.10
2019-01-29T04:09:34.730Z,15.85
2019-01-29T04:12:09.777Z,13.62
2019-01-29T04:14:46.372Z,14.35
2019-01-29T04:17:26.567Z,13.40
2019-01-29T04:20:08.685Z,18.70
2019-01-29T04:22:45.778Z,16.65
2019-01-29T04:25:21.306Z,17.45
2019-01-29T04:27:58.963Z,16.52
2019-01-29T04:30:37.355Z,15.58
2019-01-29T04:33:19.361Z,16.12
2019-01-29T04:36:02.479Z,14.73
2019-01-29T04:38:44.920Z,19.27
2019-01-29T04:41:46.713Z,20.23
2019-01-29T04:44:27.104Z,18.87
2019-01-29T04:47:05.543Z,19.25
2019-01-29T04:50:08.596Z,15.43
2019-01-29T04:53:02.601Z,16.35
2019-01-29T04:55:37.859Z,24.92
2019-01-29T04:58:12.154Z,20.68
2019-01-29T05:00:46.544Z,16.70
2019-01-29T05:03:22.255Z,20.92
2019-01-29T05:05:55.564Z,20.82
2019-01-29T05:08:28.869Z,13.83
2019-01-29T05:11:03.155Z,23.18
2019-01-29T05:13:36.519Z,11.95
2019-01-29T05:16:09.877Z,22.25
2019-01-29T05:18:44.102Z,14.38
2019-01-29T05:21:17.653Z,14.93
2019-01-29T05:23:50.981Z,16.35
2019-01-29T05:26:23.966Z,16.62
2019-01-29T05:28:56.682Z,18.85
2019-01-29T05:31:29.719Z,12.37
2019-01-29T05:34:03.418Z,15.60
2019-01-29T05:36:36.569Z,22.00
2019-01-29T05:39:11.402Z,13.13
2019-01-29T05:41:44.590Z,16.35
2019-01-29T05:44:17.579Z,16.52
2019-01-29T05:46:50.538Z,19.20
2019-01-29T05:49:23.956Z,20.20
2019-01-29T05:51:57.122Z,17.77
2019-01-29T05:54:31.783Z,20.57
2019-01-29T05:57:06.082Z,16.35
2019-01-29T05:59:39.588Z,20.68
2019-01-29T06:02:15.342Z,20.92
2019-01-29T06:04:48.641Z,24.10
2019-01-29T06:07:22.079Z,24.07
2019-01-29T06:09:58.704Z,26.37
2019-01-29T06:12:31.900Z,21.20
2019-01-29T06:15:06.405Z,26.20
2019-01-29T06:17:42.256Z,20.12
2019-01-29T06:20:18.639Z,22.32
2019-01-29T06:22:51.779Z,23.83
2019-01-29T06:25:25.221Z,23.77
2019-01-29T06:27:59.557Z,46.13
2019-01-29T06:30:40.302Z,26.55
2019-01-29T06:33:12.901Z,27.37
2019-01-29T06:35:46.304Z,36.55
2019-01-29T06:38:20.091Z,36.83
2019-01-29T06:40:53.502Z,38.10
2019-01-29T06:43:27.391Z,27.98
2019-01-29T06:46:01.404Z,34.75
2019-01-29T06:48:34.894Z,29.98
2019-01-29T06:51:08.304Z,30.75
2019-01-29T06:53:41.449Z,32.13
2019-01-29T06:56:15.141Z,29.20
2019-01-29T06:58:51.751Z,26.37
2019-01-29T07:01:27.545Z,34.85
2019-01-29T07:04:01.118Z,36.40
2019-01-29T07:06:34.939Z,29.87
2019-01-29T07:09:08.534Z,27.13
2019-01-29T07:11:41.513Z,32.63
2019-01-29T07:14:14.118Z,34.13
2019-01-29T07:17:01.929Z,39.70
2019-01-29T07:19:43.556Z,40.15
2019-01-29T07:22:17.004Z,40.10
2019-01-29T07:24:50.539Z,35.95
2019-01-29T07:27:24.334Z,35.63
2019-01-29T07:29:57.625Z,28.62
2019-01-29T07:32:31.028Z,31.82
2019-01-29T07:35:06.878Z,34.40
2019-01-29T07:37:39.983Z,27.55
2019-01-29T07:40:12.811Z,26.20
2019-01-29T07:42:45.437Z,27.67
2019-01-29T07:45:18.754Z,29.80
2019-01-29T07:47:52.110Z,35.48
2019-01-29T07:50:25.532Z,35.63
2019-01-29T07:52:59.111Z,31.33
2019-01-29T07:55:33.011Z,32.03
2019-01-29T07:58:06.017Z,35.08
2019-01-29T08:00:38.701Z,31.55
2019-01-29T08:03:12.112Z,42.40
2019-01-29T08:05:45.449Z,40.48
2019-01-29T08:08:19.908Z,30.32
2019-01-29T08:10:52.918Z,33.53
2019-01-29T08:13:26.297Z,32.00
2019-01-29T08:15:58.962Z,34.18
2019-01-29T08:18:32.790Z,33.73
2019-01-29T08:21:05.564Z,28.42
2019-01-29T08:23:39.063Z,33.30
2019-01-29T08:26:12.048Z,35.43
2019-01-29T08:28:45.279Z,33.45
2019-01-29T08:31:18.644Z,33.30
2019-01-29T08:33:52.038Z,36.63
2019-01-29T08:36:24.795Z,47.17
2019-01-29T08:38:58.321Z,42.35
2019-01-29T08:41:32.220Z,41.20
2019-01-29T08:44:05.732Z,46.88
2019-01-29T08:46:38.782Z,47.45
2019-01-29T08:49:13.836Z,48.10
2019-01-29T08:51:46.860Z,42.05
2019-01-29T08:54:19.536Z,44.27
2019-01-29T08:56:53.353Z,40.65
2019-01-29T08:59:26.503Z,38.73
2019-01-29T09:02:00.707Z,49.58
2019-01-29T09:04:34.249Z,34.15
2019-01-29T09:07:06.914Z,39.00
2019-01-29T09:09:39.689Z,40.78
2019-01-29T09:12:12.202Z,52.48
2019-01-29T09:14:44.783Z,46.45
2019-01-29T09:17:20.338Z,41.60
2019-01-29T09:19:53.283Z,39.10
2019-01-29T09:22:25.958Z,53.48
2019-01-29T09:24:59.359Z,41.70
2019-01-29T09:27:32.643Z,40.85
2019-01-29T09:30:06.653Z,43.90
2019-01-29T09:32:40.410Z,43.02
2019-01-29T09:35:14.501Z,40.10
2019-01-29T09:37:46.685Z,38.10
2019-01-29T09:40:21.704Z,43.75
2019-01-29T09:42:55.264Z,36.17
2019-01-29T09:45:28.691Z,48.70
2019-01-29T09:48:01.968Z,47.53
2019-01-29T09:50:35.105Z,44.77
2019-01-29T09:53:08.163Z,45.65
2019-01-29T09:55:42.042Z,49.08
2019-01-29T09:58:15.372Z,45.40
2019-01-29T10:00:49.511Z,43.28
2019-01-29T10:03:22.889Z,44.85
2019-01-29T10:06:03.412Z,47.00
2019-01-29T10:08:38.373Z,48.30
2019-01-29T10:11:11.872Z,47.55
2019-01-29T10:13:45.683Z,42.27
2019-01-29T10:16:18.278Z,38.42
2019-01-29T10:18:53.271Z,49.13
2019-01-29T10:21:26.354Z,59.77
2019-01-29T10:23:59.400Z,46.68
2019-01-29T10:26:32.771Z,51.48
2019-01-29T10:29:06.159Z,48.35
2019-01-29T10:31:39.666Z,49.15
2019-01-29T10:34:13.504Z,51.10
2019-01-29T10:36:46.521Z,46.55
2019-01-29T10:39:20.687Z,45.75
2019-01-29T10:41:58.536Z,49.77
2019-01-29T10:44:33.748Z,46.45
2019-01-29T10:47:08.376Z,45.45
2019-01-29T10:49:44.636Z,57.10
2019-01-29T10:52:18.007Z,53.80
2019-01-29T10:54:53.971Z,50.40
2019-01-29T10:57:30.844Z,51.60
2019-01-29T11:00:09.120Z,47.15
2019-01-29T11:02:44.422Z,54.55
2019-01-29T11:05:20.574Z,54.88
2019-01-29T11:07:56.934Z,56.95
2019-01-29T11:10:30.811Z,62.55
2019-01-29T11:13:04.552Z,54.75
2019-01-29T11:15:39.283Z,49.65
2019-01-29T11:18:16.123Z,63.70
2019-01-29T11:20:49.525Z,45.35
2019-01-29T11:23:22.511Z,54.53
2019-01-29T11:25:56.274Z,56.18
2019-01-29T11:28:29.997Z,51.35
2019-01-29T11:31:06.641Z,46.13
2019-01-29T11:33:39.384Z,44.13
2019-01-29T11:36:12.390Z,45.65
2019-01-29T11:38:49.474Z,44.45
2019-01-29T11:41:24.285Z,60.75
2019-01-29T11:44:02.643Z,46.37
2019-01-29T11:46:41.921Z,42.55
2019-01-29T11:49:23.455Z,43.55
2019-01-29T11:52:00.012Z,45.98
2019-01-29T11:54:39.607Z,49.98
2019-01-29T11:57:20.391Z,42.08
2019-01-29T11:59:58.005Z,46.58
2019-01-29T12:02:39.349Z,39.45
2019-01-29T12:05:20.152Z,37.08
2019-01-29T12:07:57.558Z,43.68
2019-01-29T12:10:34.576Z,45.58
2019-01-29T12:13:12.084Z,44.00
2019-01-29T12:15:48.458Z,34.65
2019-01-29T12:18:23.865Z,45.20
2019-01-29T12:20:57.039Z,38.00
2019-01-29T12:23:36.509Z,29.67
2019-01-29T12:26:16.964Z,30.52
2019-01-29T12:29:07.145Z,31.30
2019-01-29T12:32:07.127Z,29.50
2019-01-29T12:34:48.033Z,32.45
2019-01-29T12:37:27.451Z,31.62
2019-01-29T12:40:05.659Z,32.42
2019-01-29T12:42:40.173Z,24.00
2019-01-29T12:45:14.802Z,34.98
2019-01-29T12:47:48.565Z,27.42
2019-01-29T12:50:25.952Z,31.00
2019-01-29T12:53:08.420Z,21.25
2019-01-29T12:55:48.843Z,24.55
2019-01-29T12:58:25.101Z,22.15
2019-01-29T13:01:02.091Z,22.50
2019-01-29T13:03:37.435Z,22.82
2019-01-29T13:06:26.089Z,28.10
2019-01-29T13:09:11.329Z,25.12
2019-01-29T13:11:52.444Z,24.25
2019-01-29T13:14:35.197Z,25.32
2019-01-29T13:17:13.790Z,31.07
2019-01-29T13:19:54.404Z,31.23
2019-01-29T13:22:44.132Z,33.13
2019-01-29T13:25:17.166Z,31.37
2019-01-29T13:28:07.776Z,30.37
2019-01-29T13:30:44.556Z,29.15
2019-01-29T13:33:19.096Z,29.10
2019-01-29T13:35:54.138Z,31.20
2019-01-29T13:38:27.292Z,19.32
2019-01-29T13:41:02.436Z,26.68
2019-01-29T13:43:36.449Z,23.70
2019-01-29T13:46:10.622Z,25.08
2019-01-29T13:48:44.400Z,22.95
2019-01-29T13:51:17.047Z,26.77
2019-01-29T13:53:50.018Z,24.77
2019-01-29T13:56:23.395Z,22.58
2019-01-29T13:58:56.413Z,26.02
2019-01-29T14:01:29.456Z,23.75
2019-01-29T14:04:06.284Z,25.77
2019-01-29T14:06:37.317Z,18.80
2019-01-29T14:09:10.995Z,22.30
2019-01-29T14:12:04.794Z,19.65
2019-01-29T14:14:38.345Z,21.80
2019-01-29T14:17:14.141Z,21.15
2019-01-29T14:19:47.568Z,19.20
2019-01-29T14:22:21.125Z,16.10
2019-01-29T14:24:56.995Z,15.30
2019-01-29T14:27:30.849Z,17.35
2019-01-29T14:30:05.487Z,20.27
2019-01-29T14:32:40.842Z,15.68
2019-01-29T14:35:16.753Z,20.75
2019-01-29T14:38:46.312Z,16.77
2019-01-29T14:41:21.685Z,13.45
2019-01-29T14:43:56.974Z,14.78
2019-01-29T14:46:30.058Z,16.35
2019-01-29T14:49:03.184Z,14.85
2019-01-29T14:51:36.609Z,12.88
2019-01-29T14:54:09.408Z,13.15
2019-01-29T14:56:42.579Z,16.87
2019-01-29T14:59:17.089Z,12.07
2019-01-29T15:01:50.575Z,14.18
2019-01-29T15:04:23.875Z,14.15
2019-01-29T15:06:59.940Z,12.47
2019-01-29T15:09:32.508Z,16.52
2019-01-29T15:12:04.863Z,16.00
2019-01-29T15:14:37.224Z,33.35
2019-01-29T15:17:35.770Z,14.15
2019-01-29T15:20:10.197Z,18.35
2019-01-29T15:22:44.312Z,13.80
2019-01-29T15:25:18.249Z,13.10
2019-01-29T15:27:50.659Z,22.13
2019-01-29T15:30:25.297Z,14.10
2019-01-29T15:32:59.012Z,13.40
2019-01-29T15:35:32.219Z,13.80
2019-01-29T15:38:06.113Z,16.85
2019-01-29T15:40:39.975Z,13.65
2019-01-29T15:43:12.910Z,17.57
2019-01-29T15:45:46.498Z,16.97
2019-01-29T15:48:19.578Z,13.85
2019-01-29T15:50:53.054Z,15.80
2019-01-29T15:53:25.562Z,14.43
2019-01-29T15:55:59.061Z,15.80
2019-01-29T15:58:31.319Z,19.62
2019-01-29T16:01:04.738Z,15.90
